sensor_id;sensor_type;location;lat;lon;timestamp;temperature;humidity
11093;DHT22;5600;50.864;6.102;2022-12-28T00:01:17;7.60;99.90
11093;DHT22;5600;50.864;6.102;2022-12-28T00:04:18;7.60;99.90
11093;DHT22;5600;50.864;6.102;2022-12-28T00:07:19;7.60;99.90
11093;DHT22;5600;50.864;6.102;2022-12-28T00:10:19;7.60;99.90
11093;DHT22;5600;50.864;6.102;2022-12-28T00:13:20;7.70;99.90
11093;DHT22;5600;50.864;6.102;2022-12-28T00:19:24;7.70;99.90
11093;DHT22;5600;50.864;6.102;2022-12-28T00:22:26;7.70;99.90
11093;DHT22;5600;50.864;6.102;2022-12-28T00:25:27;7.70;99.90
11093;DHT22;5600;50.864;6.102;2022-12-28T00:28:27;7.70;99.90
11093;DHT22;5600;50.864;6.102;2022-12-28T00:31:28;7.80;99.90
11093;DHT22;5600;50.864;6.102;2022-12-28T00:34:29;7.70;99.90
11093;DHT22;5600;50.864;6.102;2022-12-28T00:37:30;7.80;99.90
11093;DHT22;5600;50.864;6.102;2022-12-28T00:40:32;7.80;99.90
11093;DHT22;5600;50.864;6.102;2022-12-28T00:43:33;7.70;99.90
11093;DHT22;5600;50.864;6.102;2022-12-28T00:46:34;7.70;99.90
11093;DHT22;5600;50.864;6.102;2022-12-28T00:49:34;7.70;99.90
11093;DHT22;5600;50.864;6.102;2022-12-28T00:52:35;7.60;99.90
11093;DHT22;5600;50.864;6.102;2022-12-28T00:55:36;7.60;99.90
11093;DHT22;5600;50.864;6.102;2022-12-28T00:58:39;7.60;99.90
11093;DHT22;5600;50.864;6.102;2022-12-28T01:01:40;7.60;99.90
11093;DHT22;5600;50.864;6.102;2022-12-28T01:04:41;7.60;99.90
11093;DHT22;5600;50.864;6.102;2022-12-28T01:07:41;7.50;99.90
11093;DHT22;5600;50.864;6.102;2022-12-28T01:10:42;7.40;99.90
11093;DHT22;5600;50.864;6.102;2022-12-28T01:13:43;7.40;99.90
11093;DHT22;5600;50.864;6.102;2022-12-28T01:16:44;7.50;99.90
11093;DHT22;5600;50.864;6.102;2022-12-28T01:19:45;7.50;99.90
11093;DHT22;5600;50.864;6.102;2022-12-28T01:22:45;7.60;99.90
11093;DHT22;5600;50.864;6.102;2022-12-28T01:25:48;7.60;99.90
11093;DHT22;5600;50.864;6.102;2022-12-28T01:28:48;7.70;99.90
11093;DHT22;5600;50.864;6.102;2022-12-28T01:31:49;7.80;99.90
11093;DHT22;5600;50.864;6.102;2022-12-28T01:34:50;7.90;99.90
11093;DHT22;5600;50.864;6.102;2022-12-28T01:37:51;8.00;99.90
11093;DHT22;5600;50.864;6.102;2022-12-28T01:40:51;8.00;99.90
11093;DHT22;5600;50.864;6.102;2022-12-28T01:47:01;8.10;99.90
11093;DHT22;5600;50.864;6.102;2022-12-28T01:50:12;8.10;99.90
11093;DHT22;5600;50.864;6.102;2022-12-28T01:53:15;8.20;99.90
11093;DHT22;5600;50.864;6.102;2022-12-28T01:56:18;8.20;99.90
11093;DHT22;5600;50.864;6.102;2022-12-28T01:59:21;8.20;99.90
11093;DHT22;5600;50.864;6.102;2022-12-28T02:02:25;8.20;99.90
11093;DHT22;5600;50.864;6.102;2022-12-28T02:05:30;8.30;99.90
11093;DHT22;5600;50.864;6.102;2022-12-28T02:08:52;8.30;99.90
11093;DHT22;5600;50.864;6.102;2022-12-28T02:11:56;8.30;99.90
11093;DHT22;5600;50.864;6.102;2022-12-28T02:14:58;8.20;99.90
11093;DHT22;5600;50.864;6.102;2022-12-28T02:17:59;8.30;99.90
11093;DHT22;5600;50.864;6.102;2022-12-28T02:24:49;8.30;99.90
11093;DHT22;5600;50.864;6.102;2022-12-28T02:35:27;8.30;99.90
11093;DHT22;5600;50.864;6.102;2022-12-28T02:41:20;8.30;99.90
11093;DHT22;5600;50.864;6.102;2022-12-28T02:44:22;8.30;99.90
11093;DHT22;5600;50.864;6.102;2022-12-28T02:47:43;7.60;99.90
11093;DHT22;5600;50.864;6.102;2022-12-28T02:51:18;8.30;99.90
11093;DHT22;5600;50.864;6.102;2022-12-28T03:05:08;8.40;99.90
11093;DHT22;5600;50.864;6.102;2022-12-28T03:08:15;8.40;99.90
11093;DHT22;5600;50.864;6.102;2022-12-28T03:15:10;8.50;99.90
11093;DHT22;5600;50.864;6.102;2022-12-28T03:18:15;8.60;99.90
11093;DHT22;5600;50.864;6.102;2022-12-28T03:21:35;8.60;99.90
11093;DHT22;5600;50.864;6.102;2022-12-28T03:24:58;8.50;99.90
11093;DHT22;5600;50.864;6.102;2022-12-28T03:28:20;8.60;99.90
11093;DHT22;5600;50.864;6.102;2022-12-28T03:31:41;8.60;99.90
11093;DHT22;5600;50.864;6.102;2022-12-28T03:34:45;8.60;99.90
11093;DHT22;5600;50.864;6.102;2022-12-28T03:37:51;8.70;99.90
11093;DHT22;5600;50.864;6.102;2022-12-28T03:41:23;8.70;99.90
11093;DHT22;5600;50.864;6.102;2022-12-28T03:44:30;8.80;99.90
11093;DHT22;5600;50.864;6.102;2022-12-28T03:47:34;8.70;99.90
11093;DHT22;5600;50.864;6.102;2022-12-28T03:50:39;8.80;99.90
11093;DHT22;5600;50.864;6.102;2022-12-28T03:53:43;8.80;99.90
11093;DHT22;5600;50.864;6.102;2022-12-28T03:56:49;8.80;99.90
11093;DHT22;5600;50.864;6.102;2022-12-28T03:59:51;8.80;99.90
11093;DHT22;5600;50.864;6.102;2022-12-28T04:02:52;8.80;99.90
11093;DHT22;5600;50.864;6.102;2022-12-28T04:05:54;8.80;99.90
11093;DHT22;5600;50.864;6.102;2022-12-28T04:08:55;8.70;99.90
11093;DHT22;5600;50.864;6.102;2022-12-28T04:11:59;8.70;99.90
11093;DHT22;5600;50.864;6.102;2022-12-28T04:15:21;8.80;99.90
11093;DHT22;5600;50.864;6.102;2022-12-28T04:18:22;8.80;99.90
11093;DHT22;5600;50.864;6.102;2022-12-28T04:21:23;8.90;99.90
11093;DHT22;5600;50.864;6.102;2022-12-28T04:24:23;8.90;99.90
11093;DHT22;5600;50.864;6.102;2022-12-28T04:27:24;8.90;99.90
11093;DHT22;5600;50.864;6.102;2022-12-28T04:30:28;9.00;99.90
11093;DHT22;5600;50.864;6.102;2022-12-28T04:33:32;9.00;99.90
11093;DHT22;5600;50.864;6.102;2022-12-28T04:36:33;8.90;99.90
11093;DHT22;5600;50.864;6.102;2022-12-28T04:39:35;8.90;99.90
11093;DHT22;5600;50.864;6.102;2022-12-28T04:42:36;9.00;99.90
11093;DHT22;5600;50.864;6.102;2022-12-28T04:45:36;9.00;99.90
11093;DHT22;5600;50.864;6.102;2022-12-28T04:48:37;9.00;99.90
11093;DHT22;5600;50.864;6.102;2022-12-28T04:51:38;8.90;99.90
11093;DHT22;5600;50.864;6.102;2022-12-28T04:54:39;9.00;99.90
11093;DHT22;5600;50.864;6.102;2022-12-28T04:57:41;9.00;99.90
11093;DHT22;5600;50.864;6.102;2022-12-28T05:00:42;9.00;99.90
11093;DHT22;5600;50.864;6.102;2022-12-28T05:03:44;9.10;99.90
11093;DHT22;5600;50.864;6.102;2022-12-28T05:06:45;9.10;99.90
11093;DHT22;5600;50.864;6.102;2022-12-28T05:09:46;9.10;99.90
11093;DHT22;5600;50.864;6.102;2022-12-28T05:12:46;9.20;99.90
11093;DHT22;5600;50.864;6.102;2022-12-28T05:15:47;9.20;99.90
11093;DHT22;5600;50.864;6.102;2022-12-28T05:18:48;9.20;99.90
11093;DHT22;5600;50.864;6.102;2022-12-28T05:21:49;9.20;99.90
11093;DHT22;5600;50.864;6.102;2022-12-28T05:24:50;9.30;99.90
11093;DHT22;5600;50.864;6.102;2022-12-28T05:27:50;9.30;99.90
11093;DHT22;5600;50.864;6.102;2022-12-28T05:30:58;9.30;99.90
11093;DHT22;5600;50.864;6.102;2022-12-28T05:33:59;9.30;99.90
11093;DHT22;5600;50.864;6.102;2022-12-28T05:36:59;9.30;99.90
11093;DHT22;5600;50.864;6.102;2022-12-28T05:40:00;9.30;99.90
11093;DHT22;5600;50.864;6.102;2022-12-28T05:43:03;9.30;99.90
11093;DHT22;5600;50.864;6.102;2022-12-28T05:46:07;9.20;99.90
11093;DHT22;5600;50.864;6.102;2022-12-28T05:49:08;9.20;99.90
11093;DHT22;5600;50.864;6.102;2022-12-28T05:52:09;9.30;99.90
11093;DHT22;5600;50.864;6.102;2022-12-28T05:55:09;9.30;99.90
11093;DHT22;5600;50.864;6.102;2022-12-28T05:58:10;9.30;99.90
11093;DHT22;5600;50.864;6.102;2022-12-28T06:01:17;9.30;99.90
11093;DHT22;5600;50.864;6.102;2022-12-28T06:04:19;9.40;99.90
11093;DHT22;5600;50.864;6.102;2022-12-28T06:07:21;9.40;99.90
11093;DHT22;5600;50.864;6.102;2022-12-28T06:10:22;9.40;99.90
11093;DHT22;5600;50.864;6.102;2022-12-28T06:13:22;9.30;99.90
11093;DHT22;5600;50.864;6.102;2022-12-28T06:16:25;9.30;99.90
11093;DHT22;5600;50.864;6.102;2022-12-28T06:19:26;9.30;99.90
11093;DHT22;5600;50.864;6.102;2022-12-28T06:22:27;9.30;99.90
11093;DHT22;5600;50.864;6.102;2022-12-28T06:25:28;9.30;99.90
11093;DHT22;5600;50.864;6.102;2022-12-28T06:28:29;9.20;99.90
11093;DHT22;5600;50.864;6.102;2022-12-28T06:31:32;9.10;99.90
11093;DHT22;5600;50.864;6.102;2022-12-28T06:34:33;9.10;99.90
11093;DHT22;5600;50.864;6.102;2022-12-28T06:37:33;9.00;99.90
11093;DHT22;5600;50.864;6.102;2022-12-28T06:40:34;9.00;99.90
11093;DHT22;5600;50.864;6.102;2022-12-28T06:43:36;9.00;99.90
11093;DHT22;5600;50.864;6.102;2022-12-28T06:46:37;9.00;99.90
11093;DHT22;5600;50.864;6.102;2022-12-28T06:49:37;8.90;99.90
11093;DHT22;5600;50.864;6.102;2022-12-28T06:52:38;9.00;99.90
11093;DHT22;5600;50.864;6.102;2022-12-28T06:55:39;9.00;99.90
11093;DHT22;5600;50.864;6.102;2022-12-28T06:58:40;9.00;99.90
11093;DHT22;5600;50.864;6.102;2022-12-28T07:01:41;9.00;99.90
11093;DHT22;5600;50.864;6.102;2022-12-28T07:04:45;9.10;99.90
11093;DHT22;5600;50.864;6.102;2022-12-28T07:07:46;9.10;99.90
11093;DHT22;5600;50.864;6.102;2022-12-28T07:10:46;9.20;99.90
11093;DHT22;5600;50.864;6.102;2022-12-28T07:13:47;9.20;99.90
11093;DHT22;5600;50.864;6.102;2022-12-28T07:16:48;9.30;99.90
11093;DHT22;5600;50.864;6.102;2022-12-28T07:19:49;9.30;99.90
11093;DHT22;5600;50.864;6.102;2022-12-28T07:22:51;9.30;99.90
11093;DHT22;5600;50.864;6.102;2022-12-28T07:25:52;9.40;99.90
11093;DHT22;5600;50.864;6.102;2022-12-28T07:28:54;9.30;99.90
11093;DHT22;5600;50.864;6.102;2022-12-28T07:31:55;9.30;99.90
11093;DHT22;5600;50.864;6.102;2022-12-28T07:34:56;9.30;99.90
11093;DHT22;5600;50.864;6.102;2022-12-28T07:37:57;9.30;99.90
11093;DHT22;5600;50.864;6.102;2022-12-28T07:41:06;9.40;99.90
11093;DHT22;5600;50.864;6.102;2022-12-28T07:44:07;9.40;99.90
11093;DHT22;5600;50.864;6.102;2022-12-28T07:47:08;9.40;99.90
11093;DHT22;5600;50.864;6.102;2022-12-28T07:50:09;9.50;99.90
11093;DHT22;5600;50.864;6.102;2022-12-28T07:53:10;9.50;99.90
11093;DHT22;5600;50.864;6.102;2022-12-28T07:56:11;9.50;99.90
11093;DHT22;5600;50.864;6.102;2022-12-28T07:59:12;9.40;99.90
11093;DHT22;5600;50.864;6.102;2022-12-28T08:02:13;9.50;99.90
11093;DHT22;5600;50.864;6.102;2022-12-28T08:05:14;9.50;99.90
11093;DHT22;5600;50.864;6.102;2022-12-28T08:08:15;9.50;99.90
11093;DHT22;5600;50.864;6.102;2022-12-28T08:11:18;9.50;99.90
11093;DHT22;5600;50.864;6.102;2022-12-28T08:14:19;9.50;99.90
11093;DHT22;5600;50.864;6.102;2022-12-28T08:17:20;9.60;99.90
11093;DHT22;5600;50.864;6.102;2022-12-28T08:20:21;9.50;99.90
11093;DHT22;5600;50.864;6.102;2022-12-28T08:23:22;9.60;99.90
11093;DHT22;5600;50.864;6.102;2022-12-28T08:26:34;9.60;99.90
11093;DHT22;5600;50.864;6.102;2022-12-28T08:29:35;9.60;99.90
11093;DHT22;5600;50.864;6.102;2022-12-28T08:32:36;9.60;99.90
11093;DHT22;5600;50.864;6.102;2022-12-28T08:35:40;9.60;99.90
11093;DHT22;5600;50.864;6.102;2022-12-28T08:38:42;9.60;99.90
11093;DHT22;5600;50.864;6.102;2022-12-28T08:41:43;9.70;99.90
11093;DHT22;5600;50.864;6.102;2022-12-28T08:44:44;9.70;99.90
11093;DHT22;5600;50.864;6.102;2022-12-28T08:47:45;9.70;99.90
11093;DHT22;5600;50.864;6.102;2022-12-28T08:50:46;9.70;99.90
11093;DHT22;5600;50.864;6.102;2022-12-28T08:53:47;9.70;99.90
11093;DHT22;5600;50.864;6.102;2022-12-28T08:56:48;9.80;99.90
11093;DHT22;5600;50.864;6.102;2022-12-28T08:59:49;9.80;99.90
11093;DHT22;5600;50.864;6.102;2022-12-28T09:02:50;9.80;99.90
11093;DHT22;5600;50.864;6.102;2022-12-28T09:05:50;9.80;99.90
11093;DHT22;5600;50.864;6.102;2022-12-28T09:08:53;9.80;99.90
11093;DHT22;5600;50.864;6.102;2022-12-28T09:11:54;9.90;99.90
11093;DHT22;5600;50.864;6.102;2022-12-28T09:14:55;9.90;99.90
11093;DHT22;5600;50.864;6.102;2022-12-28T09:17:55;9.90;99.90
11093;DHT22;5600;50.864;6.102;2022-12-28T09:20:56;10.00;99.90
11093;DHT22;5600;50.864;6.102;2022-12-28T09:23:57;10.00;99.90
11093;DHT22;5600;50.864;6.102;2022-12-28T09:26:58;10.00;99.90
11093;DHT22;5600;50.864;6.102;2022-12-28T09:29:59;9.90;99.90
11093;DHT22;5600;50.864;6.102;2022-12-28T09:33:00;10.00;99.90
11093;DHT22;5600;50.864;6.102;2022-12-28T09:36:20;10.00;99.90
11093;DHT22;5600;50.864;6.102;2022-12-28T09:39:21;10.00;99.90
11093;DHT22;5600;50.864;6.102;2022-12-28T09:42:27;10.10;99.90
11093;DHT22;5600;50.864;6.102;2022-12-28T09:45:30;10.10;99.90
11093;DHT22;5600;50.864;6.102;2022-12-28T09:48:33;10.20;99.90
11093;DHT22;5600;50.864;6.102;2022-12-28T09:51:37;10.10;99.90
11093;DHT22;5600;50.864;6.102;2022-12-28T09:54:41;10.20;99.90
11093;DHT22;5600;50.864;6.102;2022-12-28T09:57:45;10.20;99.90
11093;DHT22;5600;50.864;6.102;2022-12-28T10:00:49;10.20;99.90
11093;DHT22;5600;50.864;6.102;2022-12-28T10:03:50;10.20;99.90
11093;DHT22;5600;50.864;6.102;2022-12-28T10:06:51;10.30;99.90
11093;DHT22;5600;50.864;6.102;2022-12-28T10:09:53;10.40;99.90
11093;DHT22;5600;50.864;6.102;2022-12-28T10:12:53;10.40;99.90
11093;DHT22;5600;50.864;6.102;2022-12-28T10:15:54;10.40;99.90
11093;DHT22;5600;50.864;6.102;2022-12-28T10:18:56;10.50;99.90
11093;DHT22;5600;50.864;6.102;2022-12-28T10:22:10;10.50;99.90
11093;DHT22;5600;50.864;6.102;2022-12-28T10:25:18;10.50;99.90
11093;DHT22;5600;50.864;6.102;2022-12-28T10:28:22;10.50;99.90
11093;DHT22;5600;50.864;6.102;2022-12-28T10:31:35;10.60;99.90
11093;DHT22;5600;50.864;6.102;2022-12-28T10:34:37;10.60;99.90
11093;DHT22;5600;50.864;6.102;2022-12-28T10:37:44;10.60;99.90
11093;DHT22;5600;50.864;6.102;2022-12-28T10:40:58;10.50;99.90
11093;DHT22;5600;50.864;6.102;2022-12-28T10:44:17;10.60;99.90
11093;DHT22;5600;50.864;6.102;2022-12-28T10:47:31;10.60;99.90
11093;DHT22;5600;50.864;6.102;2022-12-28T10:50:48;10.60;99.90
11093;DHT22;5600;50.864;6.102;2022-12-28T10:53:51;10.70;99.90
11093;DHT22;5600;50.864;6.102;2022-12-28T10:56:54;10.80;99.90
11093;DHT22;5600;50.864;6.102;2022-12-28T11:00:19;10.80;99.90
11093;DHT22;5600;50.864;6.102;2022-12-28T11:03:24;10.90;99.90
11093;DHT22;5600;50.864;6.102;2022-12-28T11:06:28;10.90;99.90
11093;DHT22;5600;50.864;6.102;2022-12-28T11:09:31;10.90;99.90
11093;DHT22;5600;50.864;6.102;2022-12-28T11:12:32;10.90;99.90
11093;DHT22;5600;50.864;6.102;2022-12-28T11:15:38;10.90;99.90
11093;DHT22;5600;50.864;6.102;2022-12-28T11:18:40;10.90;99.90
11093;DHT22;5600;50.864;6.102;2022-12-28T11:21:42;10.80;99.90
11093;DHT22;5600;50.864;6.102;2022-12-28T11:24:44;10.80;99.90
11093;DHT22;5600;50.864;6.102;2022-12-28T11:27:47;10.80;99.90
11093;DHT22;5600;50.864;6.102;2022-12-28T11:30:50;10.80;99.90
11093;DHT22;5600;50.864;6.102;2022-12-28T11:33:53;10.80;99.90
11093;DHT22;5600;50.864;6.102;2022-12-28T11:36:57;10.80;99.90
11093;DHT22;5600;50.864;6.102;2022-12-28T11:39:58;10.80;99.90
11093;DHT22;5600;50.864;6.102;2022-12-28T11:42:59;10.80;99.90
11093;DHT22;5600;50.864;6.102;2022-12-28T11:46:02;10.80;99.90
11093;DHT22;5600;50.864;6.102;2022-12-28T11:49:25;10.60;99.90
11093;DHT22;5600;50.864;6.102;2022-12-28T11:52:33;10.70;99.90
11093;DHT22;5600;50.864;6.102;2022-12-28T11:59:02;10.80;99.90
11093;DHT22;5600;50.864;6.102;2022-12-28T12:08:38;10.80;99.90
11093;DHT22;5600;50.864;6.102;2022-12-28T12:11:46;10.80;99.90
11093;DHT22;5600;50.864;6.102;2022-12-28T12:14:54;10.80;99.90
11093;DHT22;5600;50.864;6.102;2022-12-28T12:18:06;10.70;99.90
11093;DHT22;5600;50.864;6.102;2022-12-28T12:21:13;10.60;99.90
11093;DHT22;5600;50.864;6.102;2022-12-28T12:24:26;10.60;99.90
11093;DHT22;5600;50.864;6.102;2022-12-28T12:30:32;10.20;99.90
11093;DHT22;5600;50.864;6.102;2022-12-28T12:33:35;10.00;99.90
11093;DHT22;5600;50.864;6.102;2022-12-28T12:36:51;9.10;99.90
11093;DHT22;5600;50.864;6.102;2022-12-28T12:40:23;9.90;99.90
11093;DHT22;5600;50.864;6.102;2022-12-28T12:47:31;10.00;99.90
11093;DHT22;5600;50.864;6.102;2022-12-28T12:58:02;10.30;99.90
11093;DHT22;5600;50.864;6.102;2022-12-28T13:04:21;10.30;99.90
11093;DHT22;5600;50.864;6.102;2022-12-28T13:07:26;10.50;99.90
11093;DHT22;5600;50.864;6.102;2022-12-28T13:10:34;10.50;99.90
11093;DHT22;5600;50.864;6.102;2022-12-28T13:13:37;10.50;99.90
11093;DHT22;5600;50.864;6.102;2022-12-28T13:16:38;10.60;99.90
11093;DHT22;5600;50.864;6.102;2022-12-28T13:19:39;10.60;99.90
11093;DHT22;5600;50.864;6.102;2022-12-28T13:22:45;10.60;99.90
11093;DHT22;5600;50.864;6.102;2022-12-28T13:25:51;10.60;99.90
11093;DHT22;5600;50.864;6.102;2022-12-28T13:29:01;10.60;99.90
11093;DHT22;5600;50.864;6.102;2022-12-28T13:32:03;10.70;99.90
11093;DHT22;5600;50.864;6.102;2022-12-28T13:35:19;10.70;99.90
11093;DHT22;5600;50.864;6.102;2022-12-28T13:38:20;10.80;99.90
11093;DHT22;5600;50.864;6.102;2022-12-28T13:41:24;10.80;99.90
11093;DHT22;5600;50.864;6.102;2022-12-28T13:47:46;10.90;99.90
11093;DHT22;5600;50.864;6.102;2022-12-28T13:50:49;12.40;99.90
11093;DHT22;5600;50.864;6.102;2022-12-28T13:53:55;10.90;99.90
11093;DHT22;5600;50.864;6.102;2022-12-28T13:56:58;10.90;99.90
11093;DHT22;5600;50.864;6.102;2022-12-28T14:00:00;11.00;99.90
11093;DHT22;5600;50.864;6.102;2022-12-28T14:03:05;11.00;99.90
11093;DHT22;5600;50.864;6.102;2022-12-28T14:06:08;11.00;99.90
11093;DHT22;5600;50.864;6.102;2022-12-28T14:09:11;11.00;99.90
11093;DHT22;5600;50.864;6.102;2022-12-28T14:12:13;11.00;99.90
11093;DHT22;5600;50.864;6.102;2022-12-28T14:15:16;10.90;99.90
11093;DHT22;5600;50.864;6.102;2022-12-28T14:18:17;10.90;99.90
11093;DHT22;5600;50.864;6.102;2022-12-28T14:21:38;10.80;99.90
11093;DHT22;5600;50.864;6.102;2022-12-28T14:25:07;10.80;99.90
11093;DHT22;5600;50.864;6.102;2022-12-28T14:28:51;10.80;99.90
11093;DHT22;5600;50.864;6.102;2022-12-28T14:31:44;10.80;99.90
11093;DHT22;5600;50.864;6.102;2022-12-28T14:37:56;10.70;99.90
11093;DHT22;5600;50.864;6.102;2022-12-28T14:40:59;10.70;99.90
11093;DHT22;5600;50.864;6.102;2022-12-28T14:44:03;10.70;99.90
11093;DHT22;5600;50.864;6.102;2022-12-28T14:47:43;10.70;99.90
11093;DHT22;5600;50.864;6.102;2022-12-28T14:51:04;10.70;99.90
11093;DHT22;5600;50.864;6.102;2022-12-28T14:54:24;10.80;99.90
11093;DHT22;5600;50.864;6.102;2022-12-28T14:57:41;10.80;99.90
11093;DHT22;5600;50.864;6.102;2022-12-28T15:00:59;10.80;99.90
11093;DHT22;5600;50.864;6.102;2022-12-28T15:04:01;10.90;99.90
11093;DHT22;5600;50.864;6.102;2022-12-28T15:07:05;10.90;99.90
11093;DHT22;5600;50.864;6.102;2022-12-28T15:10:07;11.00;99.90
11093;DHT22;5600;50.864;6.102;2022-12-28T15:13:07;10.90;99.90
11093;DHT22;5600;50.864;6.102;2022-12-28T15:16:10;10.90;99.90
11093;DHT22;5600;50.864;6.102;2022-12-28T15:19:11;10.90;99.90
11093;DHT22;5600;50.864;6.102;2022-12-28T15:22:12;10.90;99.90
11093;DHT22;5600;50.864;6.102;2022-12-28T15:25:13;10.80;99.90
11093;DHT22;5600;50.864;6.102;2022-12-28T15:28:14;10.80;99.90
11093;DHT22;5600;50.864;6.102;2022-12-28T15:31:17;10.80;99.90
11093;DHT22;5600;50.864;6.102;2022-12-28T15:34:19;10.90;99.90
11093;DHT22;5600;50.864;6.102;2022-12-28T15:37:19;10.80;99.90
11093;DHT22;5600;50.864;6.102;2022-12-28T15:40:20;10.70;99.90
11093;DHT22;5600;50.864;6.102;2022-12-28T15:43:21;10.80;99.90
11093;DHT22;5600;50.864;6.102;2022-12-28T15:46:21;10.80;99.90
11093;DHT22;5600;50.864;6.102;2022-12-28T15:49:22;10.80;99.90
11093;DHT22;5600;50.864;6.102;2022-12-28T15:52:23;10.80;99.90
11093;DHT22;5600;50.864;6.102;2022-12-28T15:55:24;10.70;99.90
11093;DHT22;5600;50.864;6.102;2022-12-28T15:58:24;10.70;99.90
11093;DHT22;5600;50.864;6.102;2022-12-28T16:01:27;10.70;99.90
11093;DHT22;5600;50.864;6.102;2022-12-28T16:04:28;10.70;99.90
11093;DHT22;5600;50.864;6.102;2022-12-28T16:07:29;10.70;99.90
11093;DHT22;5600;50.864;6.102;2022-12-28T16:10:29;10.20;99.90
11093;DHT22;5600;50.864;6.102;2022-12-28T16:13:30;10.80;99.90
11093;DHT22;5600;50.864;6.102;2022-12-28T16:16:34;10.80;99.90
11093;DHT22;5600;50.864;6.102;2022-12-28T16:19:35;10.80;99.90
11093;DHT22;5600;50.864;6.102;2022-12-28T16:22:35;10.80;99.90
11093;DHT22;5600;50.864;6.102;2022-12-28T16:25:36;10.70;99.90
11093;DHT22;5600;50.864;6.102;2022-12-28T16:28:37;10.70;99.90
11093;DHT22;5600;50.864;6.102;2022-12-28T16:31:38;10.70;99.90
11093;DHT22;5600;50.864;6.102;2022-12-28T16:34:38;10.70;99.90
11093;DHT22;5600;50.864;6.102;2022-12-28T16:37:39;10.60;99.90
11093;DHT22;5600;50.864;6.102;2022-12-28T16:40:40;10.50;99.90
11093;DHT22;5600;50.864;6.102;2022-12-28T16:43:41;10.50;99.90
11093;DHT22;5600;50.864;6.102;2022-12-28T16:46:41;10.40;99.90
11093;DHT22;5600;50.864;6.102;2022-12-28T16:49:42;10.40;99.90
11093;DHT22;5600;50.864;6.102;2022-12-28T16:52:43;10.30;99.90
11093;DHT22;5600;50.864;6.102;2022-12-28T16:55:43;10.30;99.90
11093;DHT22;5600;50.864;6.102;2022-12-28T16:58:44;10.10;99.90
11093;DHT22;5600;50.864;6.102;2022-12-28T17:01:45;10.00;99.90
11093;DHT22;5600;50.864;6.102;2022-12-28T17:04:46;10.00;99.90
11093;DHT22;5600;50.864;6.102;2022-12-28T17:07:47;10.00;99.90
11093;DHT22;5600;50.864;6.102;2022-12-28T17:10:47;10.00;99.90
11093;DHT22;5600;50.864;6.102;2022-12-28T17:13:48;10.00;99.90
11093;DHT22;5600;50.864;6.102;2022-12-28T17:16:49;10.00;99.90
11093;DHT22;5600;50.864;6.102;2022-12-28T17:19:49;10.00;99.90
11093;DHT22;5600;50.864;6.102;2022-12-28T17:22:50;10.00;99.90
11093;DHT22;5600;50.864;6.102;2022-12-28T17:25:52;10.00;99.90
11093;DHT22;5600;50.864;6.102;2022-12-28T17:28:53;10.00;99.90
11093;DHT22;5600;50.864;6.102;2022-12-28T17:31:54;9.90;99.90
11093;DHT22;5600;50.864;6.102;2022-12-28T17:34:55;9.90;99.90
11093;DHT22;5600;50.864;6.102;2022-12-28T17:37:55;9.90;99.90
11093;DHT22;5600;50.864;6.102;2022-12-28T17:40:56;9.80;99.90
11093;DHT22;5600;50.864;6.102;2022-12-28T17:43:58;9.70;99.90
11093;DHT22;5600;50.864;6.102;2022-12-28T17:46:59;9.60;99.90
11093;DHT22;5600;50.864;6.102;2022-12-28T17:49:59;9.50;99.90
11093;DHT22;5600;50.864;6.102;2022-12-28T17:53:00;9.50;99.90
11093;DHT22;5600;50.864;6.102;2022-12-28T17:56:07;9.50;99.90
11093;DHT22;5600;50.864;6.102;2022-12-28T17:59:13;9.50;99.90
11093;DHT22;5600;50.864;6.102;2022-12-28T18:02:13;9.40;99.90
11093;DHT22;5600;50.864;6.102;2022-12-28T18:05:14;9.40;99.90
11093;DHT22;5600;50.864;6.102;2022-12-28T18:08:15;9.50;99.90
11093;DHT22;5600;50.864;6.102;2022-12-28T18:11:16;9.40;99.90
11093;DHT22;5600;50.864;6.102;2022-12-28T18:14:17;9.30;99.90
11093;DHT22;5600;50.864;6.102;2022-12-28T18:17:17;9.30;99.90
11093;DHT22;5600;50.864;6.102;2022-12-28T18:20:22;9.30;99.90
11093;DHT22;5600;50.864;6.102;2022-12-28T18:23:23;9.30;99.90
11093;DHT22;5600;50.864;6.102;2022-12-28T18:26:25;9.20;99.90
11093;DHT22;5600;50.864;6.102;2022-12-28T18:29:26;9.30;99.90
11093;DHT22;5600;50.864;6.102;2022-12-28T18:32:26;9.20;99.90
11093;DHT22;5600;50.864;6.102;2022-12-28T18:35:27;9.10;99.90
11093;DHT22;5600;50.864;6.102;2022-12-28T18:38:28;9.20;99.90
11093;DHT22;5600;50.864;6.102;2022-12-28T18:41:29;9.20;99.90
11093;DHT22;5600;50.864;6.102;2022-12-28T18:44:29;9.10;99.90
11093;DHT22;5600;50.864;6.102;2022-12-28T18:47:30;9.10;99.90
11093;DHT22;5600;50.864;6.102;2022-12-28T18:50:32;9.10;99.90
11093;DHT22;5600;50.864;6.102;2022-12-28T18:53:33;9.20;99.90
11093;DHT22;5600;50.864;6.102;2022-12-28T18:56:34;9.30;99.90
11093;DHT22;5600;50.864;6.102;2022-12-28T18:59:34;9.30;99.90
11093;DHT22;5600;50.864;6.102;2022-12-28T19:02:35;9.30;99.90
11093;DHT22;5600;50.864;6.102;2022-12-28T19:05:36;9.30;99.90
11093;DHT22;5600;50.864;6.102;2022-12-28T19:08:38;9.30;99.90
11093;DHT22;5600;50.864;6.102;2022-12-28T19:11:40;9.20;99.90
11093;DHT22;5600;50.864;6.102;2022-12-28T19:14:40;9.30;99.90
11093;DHT22;5600;50.864;6.102;2022-12-28T19:17:41;9.40;99.90
11093;DHT22;5600;50.864;6.102;2022-12-28T19:20:41;9.40;99.90
11093;DHT22;5600;50.864;6.102;2022-12-28T19:23:43;9.50;99.90
11093;DHT22;5600;50.864;6.102;2022-12-28T19:26:45;9.60;99.90
11093;DHT22;5600;50.864;6.102;2022-12-28T19:29:46;9.70;99.90
11093;DHT22;5600;50.864;6.102;2022-12-28T19:32:49;9.80;99.90
11093;DHT22;5600;50.864;6.102;2022-12-28T19:35:52;9.80;99.90
11093;DHT22;5600;50.864;6.102;2022-12-28T19:38:53;10.00;99.90
11093;DHT22;5600;50.864;6.102;2022-12-28T19:41:57;10.00;99.90
11093;DHT22;5600;50.864;6.102;2022-12-28T19:44:57;10.10;99.90
11093;DHT22;5600;50.864;6.102;2022-12-28T19:47:58;10.20;99.90
11093;DHT22;5600;50.864;6.102;2022-12-28T19:50:59;10.30;99.90
11093;DHT22;5600;50.864;6.102;2022-12-28T19:54:00;10.30;99.90
11093;DHT22;5600;50.864;6.102;2022-12-28T19:57:01;10.30;99.90
11093;DHT22;5600;50.864;6.102;2022-12-28T20:00:02;10.40;99.90
11093;DHT22;5600;50.864;6.102;2022-12-28T20:03:05;10.40;99.90
11093;DHT22;5600;50.864;6.102;2022-12-28T20:09:10;10.60;99.90
11093;DHT22;5600;50.864;6.102;2022-12-28T20:12:11;10.60;99.90
11093;DHT22;5600;50.864;6.102;2022-12-28T20:15:12;10.70;99.90
11093;DHT22;5600;50.864;6.102;2022-12-28T20:18:13;10.70;99.90
11093;DHT22;5600;50.864;6.102;2022-12-28T20:21:14;10.70;99.90
11093;DHT22;5600;50.864;6.102;2022-12-28T20:24:15;10.70;99.90
11093;DHT22;5600;50.864;6.102;2022-12-28T20:27:16;10.70;99.90
11093;DHT22;5600;50.864;6.102;2022-12-28T20:30:17;10.80;99.90
11093;DHT22;5600;50.864;6.102;2022-12-28T20:33:18;10.90;99.90
11093;DHT22;5600;50.864;6.102;2022-12-28T20:36:25;11.00;99.90
11093;DHT22;5600;50.864;6.102;2022-12-28T20:39:26;11.00;99.90
11093;DHT22;5600;50.864;6.102;2022-12-28T20:42:26;11.00;99.90
11093;DHT22;5600;50.864;6.102;2022-12-28T20:45:46;11.00;99.90
11093;DHT22;5600;50.864;6.102;2022-12-28T20:48:47;11.10;99.90
11093;DHT22;5600;50.864;6.102;2022-12-28T20:51:47;11.10;99.90
11093;DHT22;5600;50.864;6.102;2022-12-28T20:54:49;11.20;99.90
11093;DHT22;5600;50.864;6.102;2022-12-28T20:57:49;11.20;99.90
11093;DHT22;5600;50.864;6.102;2022-12-28T21:00:52;11.20;99.90